PWSweather.com
Personal Weather Stations
Station Observations
KC4KQE
Superstition Mountains, Apache Junction, AZ 85119

Superstition MountainsApache Junction, AZ 85119

Lat: 33.41578, Lon: -111.49328

Elevation: 1850

Station Type: Davis Vantage Pro2 Plus

http://kc4kqe.org/

High Low Average
Temperature 102.1°F38.9°C 84.2°F29.0°C 92.1°F33.4°C
Dew Point 30.5°F-0.8°C 5.2°F-14.9°C 21.8°F-5.7°C
Winds 18.0 mph 29.0 kmh 1.0 mph 1.6 kmh 8.0 mph SSE12.9 kmh SSE
Wind Gusts 22.0 mph35.4 kmh 6.0 mph9.7 kmh 15.0 mph24.1 kmh
Humidity 11% 3% 9%
Pressure 29.77 in1008.1 mb 29.64 in1003.7 mb -
Precipitation 0.00 in0.0 mm - -
Hour Temp Dew Point Humidity Winds Wind Gusts Pressure Precip Precip Rate Daily Precip Total
12:00 AM 89.0°F31.7°C 20.0°F-6.7°C 8% 14.0 mph SE22.5 kmh SE 15.0 mph24.1 kmh 29.70 in1005.8 mb 0.00 in0.0 mm 0.00 in/hr0.0 mm/hr 0.00 in0.0 mm
12:05 AM 88.9°F31.6°C 19.9°F-6.7°C 8% 11.0 mph E17.7 kmh E 19.0 mph30.6 kmh 29.69 in1005.4 mb 0.00 in0.0 mm 0.00 in/hr0.0 mm/hr 0.00 in0.0 mm
12:10 AM 88.8°F31.6°C 19.9°F-6.7°C 8% 8.0 mph ESE12.9 kmh ESE 17.0 mph27.4 kmh 29.69 in1005.4 mb 0.00 in0.0 mm 0.00 in/hr0.0 mm/hr 0.00 in0.0 mm
12:15 AM 88.7°F31.5°C 22.6°F-5.2°C 9% 10.0 mph SE16.1 kmh SE 22.0 mph35.4 kmh 29.69 in1005.4 mb 0.00 in0.0 mm 0.00 in/hr0.0 mm/hr 0.00 in0.0 mm
12:20 AM 88.6°F31.4°C 22.5°F-5.3°C 9% 9.0 mph SE14.5 kmh SE 22.0 mph35.4 kmh 29.69 in1005.4 mb 0.00 in0.0 mm 0.00 in/hr0.0 mm/hr 0.00 in0.0 mm
12:25 AM 88.6°F31.4°C 22.5°F-5.3°C 9% 7.0 mph SE11.3 kmh SE 20.0 mph32.2 kmh 29.69 in1005.4 mb 0.00 in0.0 mm 0.00 in/hr0.0 mm/hr 0.00 in0.0 mm
12:30 AM 88.4°F31.3°C 22.3°F-5.4°C 9% 10.0 mph SE16.1 kmh SE 22.0 mph35.4 kmh 29.69 in1005.4 mb 0.00 in0.0 mm 0.00 in/hr0.0 mm/hr 0.00 in0.0 mm
12:35 AM 88.4°F31.3°C 22.3°F-5.4°C 9% 13.0 mph E20.9 kmh E 22.0 mph35.4 kmh 29.69 in1005.4 mb 0.00 in0.0 mm 0.00 in/hr0.0 mm/hr 0.00 in0.0 mm
12:40 AM 88.3°F31.3°C 22.3°F-5.4°C 9% 9.0 mph SE14.5 kmh SE 17.0 mph27.4 kmh 29.70 in1005.8 mb 0.00 in0.0 mm 0.00 in/hr0.0 mm/hr 0.00 in0.0 mm
12:45 AM 87.9°F31.1°C 22.0°F-5.6°C 9% 10.0 mph SE16.1 kmh SE 17.0 mph27.4 kmh 29.69 in1005.4 mb 0.00 in0.0 mm 0.00 in/hr0.0 mm/hr 0.00 in0.0 mm
12:50 AM 87.7°F30.9°C 21.8°F-5.7°C 9% 10.0 mph SSE16.1 kmh SSE 18.0 mph29.0 kmh 29.69 in1005.4 mb 0.00 in0.0 mm 0.00 in/hr0.0 mm/hr 0.00 in0.0 mm
12:55 AM 87.3°F30.7°C 21.5°F-5.8°C 9% 9.0 mph SE14.5 kmh SE 13.0 mph20.9 kmh 29.70 in1005.8 mb 0.00 in0.0 mm 0.00 in/hr0.0 mm/hr 0.00 in0.0 mm
01:00 AM 87.0°F30.6°C 21.3°F-5.9°C 9% 5.0 mph E8.0 kmh E 14.0 mph22.5 kmh 29.69 in1005.4 mb 0.00 in0.0 mm 0.00 in/hr0.0 mm/hr 0.00 in0.0 mm
01:05 AM 87.1°F30.6°C 21.4°F-5.9°C 9% 7.0 mph SE11.3 kmh SE 16.0 mph25.7 kmh 29.69 in1005.4 mb 0.00 in0.0 mm 0.00 in/hr0.0 mm/hr 0.00 in0.0 mm
01:10 AM 87.3°F30.7°C 21.5°F-5.8°C 9% 6.0 mph S9.7 kmh S 16.0 mph25.7 kmh 29.69 in1005.4 mb 0.00 in0.0 mm 0.00 in/hr0.0 mm/hr 0.00 in0.0 mm
01:15 AM 87.0°F30.6°C 21.3°F-5.9°C 9% 4.0 mph ESE6.4 kmh ESE 14.0 mph22.5 kmh 29.69 in1005.4 mb 0.00 in0.0 mm 0.00 in/hr0.0 mm/hr 0.00 in0.0 mm
01:20 AM 86.8°F30.4°C 21.1°F-6.1°C 9% 7.0 mph ESE11.3 kmh ESE 17.0 mph27.4 kmh 29.70 in1005.8 mb 0.00 in0.0 mm 0.00 in/hr0.0 mm/hr 0.00 in0.0 mm
01:25 AM 86.6°F30.3°C 21.0°F-6.1°C 9% 9.0 mph SSE14.5 kmh SSE 13.0 mph20.9 kmh 29.70 in1005.8 mb 0.00 in0.0 mm 0.00 in/hr0.0 mm/hr 0.00 in0.0 mm
01:30 AM 86.4°F30.2°C 23.3°F-4.8°C 10% 7.0 mph ESE11.3 kmh ESE 19.0 mph30.6 kmh 29.70 in1005.8 mb 0.00 in0.0 mm 0.00 in/hr0.0 mm/hr 0.00 in0.0 mm
01:35 AM 86.6°F30.3°C 23.5°F-4.7°C 10% 5.0 mph SE8.0 kmh SE 15.0 mph24.1 kmh 29.70 in1005.8 mb 0.00 in0.0 mm 0.00 in/hr0.0 mm/hr 0.00 in0.0 mm
01:40 AM 86.6°F30.3°C 23.5°F-4.7°C 10% 6.0 mph SE9.7 kmh SE 13.0 mph20.9 kmh 29.70 in1005.8 mb 0.00 in0.0 mm 0.00 in/hr0.0 mm/hr 0.00 in0.0 mm
01:45 AM 86.5°F30.3°C 23.4°F-4.8°C 10% 8.0 mph E12.9 kmh E 14.0 mph22.5 kmh 29.70 in1005.8 mb 0.00 in0.0 mm 0.00 in/hr0.0 mm/hr 0.00 in0.0 mm
01:50 AM 86.5°F30.3°C 23.4°F-4.8°C 10% 15.0 mph ESE24.1 kmh ESE 13.0 mph20.9 kmh 29.70 in1005.8 mb 0.00 in0.0 mm 0.00 in/hr0.0 mm/hr 0.00 in0.0 mm
01:55 AM 86.5°F30.3°C 20.9°F-6.2°C 9% 14.0 mph SE22.5 kmh SE 15.0 mph24.1 kmh 29.70 in1005.8 mb 0.00 in0.0 mm 0.00 in/hr0.0 mm/hr 0.00 in0.0 mm
02:00 AM 86.5°F30.3°C 20.9°F-6.2°C 9% 7.0 mph ESE11.3 kmh ESE 14.0 mph22.5 kmh 29.70 in1005.8 mb 0.00 in0.0 mm 0.00 in/hr0.0 mm/hr 0.00 in0.0 mm
02:05 AM 86.5°F30.3°C 20.9°F-6.2°C 9% 11.0 mph SE17.7 kmh SE 17.0 mph27.4 kmh 29.70 in1005.8 mb 0.00 in0.0 mm 0.00 in/hr0.0 mm/hr 0.00 in0.0 mm
02:10 AM 86.3°F30.2°C 23.3°F-4.8°C 10% 7.0 mph SE11.3 kmh SE 14.0 mph22.5 kmh 29.70 in1005.8 mb 0.00 in0.0 mm 0.00 in/hr0.0 mm/hr 0.00 in0.0 mm
02:15 AM 86.4°F30.2°C 20.9°F-6.2°C 9% 10.0 mph SE16.1 kmh SE 21.0 mph33.8 kmh 29.70 in1005.8 mb 0.00 in0.0 mm 0.00 in/hr0.0 mm/hr 0.00 in0.0 mm
02:20 AM 86.3°F30.2°C 23.3°F-4.8°C 10% 12.0 mph SE19.3 kmh SE 17.0 mph27.4 kmh 29.69 in1005.4 mb 0.00 in0.0 mm 0.00 in/hr0.0 mm/hr 0.00 in0.0 mm
02:25 AM 86.3°F30.2°C 23.3°F-4.8°C 10% 9.0 mph SE14.5 kmh SE 18.0 mph29.0 kmh 29.69 in1005.4 mb 0.00 in0.0 mm 0.00 in/hr0.0 mm/hr 0.00 in0.0 mm
02:30 AM 86.3°F30.2°C 23.3°F-4.8°C 10% 15.0 mph ESE24.1 kmh ESE 17.0 mph27.4 kmh 29.70 in1005.8 mb 0.00 in0.0 mm 0.00 in/hr0.0 mm/hr 0.00 in0.0 mm
02:35 AM 86.2°F30.1°C 23.2°F-4.9°C 10% 11.0 mph SE17.7 kmh SE 15.0 mph24.1 kmh 29.70 in1005.8 mb 0.00 in0.0 mm 0.00 in/hr0.0 mm/hr 0.00 in0.0 mm
02:40 AM 86.2°F30.1°C 23.2°F-4.9°C 10% 10.0 mph SE16.1 kmh SE 17.0 mph27.4 kmh 29.70 in1005.8 mb 0.00 in0.0 mm 0.00 in/hr0.0 mm/hr 0.00 in0.0 mm
02:45 AM 86.0°F30.0°C 23.0°F-5.0°C 10% 8.0 mph ESE12.9 kmh ESE 16.0 mph25.7 kmh 29.70 in1005.8 mb 0.00 in0.0 mm 0.00 in/hr0.0 mm/hr 0.00 in0.0 mm
02:50 AM 86.0°F30.0°C 23.0°F-5.0°C 10% 5.0 mph SE8.0 kmh SE 14.0 mph22.5 kmh 29.70 in1005.8 mb 0.00 in0.0 mm 0.00 in/hr0.0 mm/hr 0.00 in0.0 mm
02:55 AM 85.7°F29.8°C 22.8°F-5.1°C 10% 11.0 mph E17.7 kmh E 16.0 mph25.7 kmh 29.70 in1005.8 mb 0.00 in0.0 mm 0.00 in/hr0.0 mm/hr 0.00 in0.0 mm
03:00 AM 85.7°F29.8°C 22.8°F-5.1°C 10% 10.0 mph SE16.1 kmh SE 17.0 mph27.4 kmh 29.70 in1005.8 mb 0.00 in0.0 mm 0.00 in/hr0.0 mm/hr 0.00 in0.0 mm
03:05 AM 85.8°F29.9°C 22.9°F-5.1°C 10% 13.0 mph ESE20.9 kmh ESE 13.0 mph20.9 kmh 29.70 in1005.8 mb 0.00 in0.0 mm 0.00 in/hr0.0 mm/hr 0.00 in0.0 mm
03:10 AM 85.7°F29.8°C 22.8°F-5.1°C 10% 11.0 mph ESE17.7 kmh ESE 16.0 mph25.7 kmh 29.69 in1005.4 mb 0.00 in0.0 mm 0.00 in/hr0.0 mm/hr 0.00 in0.0 mm
03:15 AM 85.7°F29.8°C 22.8°F-5.1°C 10% 9.0 mph SSE14.5 kmh SSE 17.0 mph27.4 kmh 29.70 in1005.8 mb 0.00 in0.0 mm 0.00 in/hr0.0 mm/hr 0.00 in0.0 mm
03:20 AM 85.3°F29.6°C 22.5°F-5.3°C 10% 10.0 mph SE16.1 kmh SE 13.0 mph20.9 kmh 29.70 in1005.8 mb 0.00 in0.0 mm 0.00 in/hr0.0 mm/hr 0.00 in0.0 mm
03:25 AM 85.1°F29.5°C 22.4°F-5.3°C 10% 7.0 mph ESE11.3 kmh ESE 14.0 mph22.5 kmh 29.70 in1005.8 mb 0.00 in0.0 mm 0.00 in/hr0.0 mm/hr 0.00 in0.0 mm
03:30 AM 84.9°F29.4°C 24.5°F-4.2°C 11% 7.0 mph ESE11.3 kmh ESE 15.0 mph24.1 kmh 29.70 in1005.8 mb 0.00 in0.0 mm 0.00 in/hr0.0 mm/hr 0.00 in0.0 mm
03:35 AM 85.0°F29.4°C 24.6°F-4.1°C 11% 16.0 mph E25.7 kmh E 22.0 mph35.4 kmh 29.70 in1005.8 mb 0.00 in0.0 mm 0.00 in/hr0.0 mm/hr 0.00 in0.0 mm
03:40 AM 85.0°F29.4°C 24.6°F-4.1°C 11% 16.0 mph E25.7 kmh E 19.0 mph30.6 kmh 29.70 in1005.8 mb 0.00 in0.0 mm 0.00 in/hr0.0 mm/hr 0.00 in0.0 mm
03:45 AM 85.1°F29.5°C 24.6°F-4.1°C 11% 15.0 mph E24.1 kmh E 18.0 mph29.0 kmh 29.70 in1005.8 mb 0.00 in0.0 mm 0.00 in/hr0.0 mm/hr 0.00 in0.0 mm
03:50 AM 85.0°F29.4°C 24.6°F-4.1°C 11% 7.0 mph SE11.3 kmh SE 17.0 mph27.4 kmh 29.70 in1005.8 mb 0.00 in0.0 mm 0.00 in/hr0.0 mm/hr 0.00 in0.0 mm
03:55 AM 84.7°F29.3°C 24.3°F-4.3°C 11% 15.0 mph E24.1 kmh E 19.0 mph30.6 kmh 29.70 in1005.8 mb 0.00 in0.0 mm 0.00 in/hr0.0 mm/hr 0.00 in0.0 mm
04:00 AM 84.9°F29.4°C 24.5°F-4.2°C 11% 5.0 mph SE8.0 kmh SE 15.0 mph24.1 kmh 29.70 in1005.8 mb 0.00 in0.0 mm 0.00 in/hr0.0 mm/hr 0.00 in0.0 mm
04:05 AM 85.0°F29.4°C 24.6°F-4.1°C 11% 9.0 mph SE14.5 kmh SE 17.0 mph27.4 kmh 29.70 in1005.8 mb 0.00 in0.0 mm 0.00 in/hr0.0 mm/hr 0.00 in0.0 mm
04:10 AM 85.0°F29.4°C 24.6°F-4.1°C 11% 10.0 mph SE16.1 kmh SE 21.0 mph33.8 kmh 29.70 in1005.8 mb 0.00 in0.0 mm 0.00 in/hr0.0 mm/hr 0.00 in0.0 mm
04:15 AM 85.1°F29.5°C 24.6°F-4.1°C 11% 12.0 mph SE19.3 kmh SE 19.0 mph30.6 kmh 29.70 in1005.8 mb 0.00 in0.0 mm 0.00 in/hr0.0 mm/hr 0.00 in0.0 mm
04:20 AM 85.0°F29.4°C 24.6°F-4.1°C 11% 9.0 mph SE14.5 kmh SE 15.0 mph24.1 kmh 29.70 in1005.8 mb 0.00 in0.0 mm 0.00 in/hr0.0 mm/hr 0.00 in0.0 mm
04:25 AM 84.9°F29.4°C 24.5°F-4.2°C 11% 11.0 mph SE17.7 kmh SE 17.0 mph27.4 kmh 29.70 in1005.8 mb 0.00 in0.0 mm 0.00 in/hr0.0 mm/hr 0.00 in0.0 mm
04:30 AM 84.7°F29.3°C 24.3°F-4.3°C 11% 10.0 mph ESE16.1 kmh ESE 15.0 mph24.1 kmh 29.70 in1005.8 mb 0.00 in0.0 mm 0.00 in/hr0.0 mm/hr 0.00 in0.0 mm
04:35 AM 84.7°F29.3°C 24.3°F-4.3°C 11% 12.0 mph SE19.3 kmh SE 16.0 mph25.7 kmh 29.70 in1005.8 mb 0.00 in0.0 mm 0.00 in/hr0.0 mm/hr 0.00 in0.0 mm
04:40 AM 84.5°F29.2°C 24.2°F-4.3°C 11% 11.0 mph SE17.7 kmh SE 17.0 mph27.4 kmh 29.70 in1005.8 mb 0.00 in0.0 mm 0.00 in/hr0.0 mm/hr 0.00 in0.0 mm
04:45 AM 84.3°F29.1°C 24.0°F-4.4°C 11% 11.0 mph SE17.7 kmh SE 15.0 mph24.1 kmh 29.70 in1005.8 mb 0.00 in0.0 mm 0.00 in/hr0.0 mm/hr 0.00 in0.0 mm
04:50 AM 84.3°F29.1°C 24.0°F-4.4°C 11% 8.0 mph ESE12.9 kmh ESE 16.0 mph25.7 kmh 29.70 in1005.8 mb 0.00 in0.0 mm 0.00 in/hr0.0 mm/hr 0.00 in0.0 mm
04:55 AM 84.3°F29.1°C 24.0°F-4.4°C 11% 10.0 mph ESE16.1 kmh ESE 18.0 mph29.0 kmh 29.70 in1005.8 mb 0.00 in0.0 mm 0.00 in/hr0.0 mm/hr 0.00 in0.0 mm
05:00 AM 84.3°F29.1°C 24.0°F-4.4°C 11% 6.0 mph SE9.7 kmh SE 17.0 mph27.4 kmh 29.70 in1005.8 mb 0.00 in0.0 mm 0.00 in/hr0.0 mm/hr 0.00 in0.0 mm
05:05 AM 84.3°F29.1°C 24.0°F-4.4°C 11% 5.0 mph ESE8.0 kmh ESE 14.0 mph22.5 kmh 29.70 in1005.8 mb 0.00 in0.0 mm 0.00 in/hr0.0 mm/hr 0.00 in0.0 mm
05:10 AM 84.2°F29.0°C 23.9°F-4.5°C 11% 12.0 mph SE19.3 kmh SE 14.0 mph22.5 kmh 29.70 in1005.8 mb 0.00 in0.0 mm 0.00 in/hr0.0 mm/hr 0.00 in0.0 mm
05:15 AM 84.3°F29.1°C 24.0°F-4.4°C 11% 7.0 mph ESE11.3 kmh ESE 16.0 mph25.7 kmh 29.70 in1005.8 mb 0.00 in0.0 mm 0.00 in/hr0.0 mm/hr 0.00 in0.0 mm
05:20 AM 84.4°F29.1°C 24.1°F-4.4°C 11% 6.0 mph SE9.7 kmh SE 15.0 mph24.1 kmh 29.70 in1005.8 mb 0.00 in0.0 mm 0.00 in/hr0.0 mm/hr 0.00 in0.0 mm
05:25 AM 84.4°F29.1°C 24.1°F-4.4°C 11% 3.0 mph SE4.8 kmh SE 14.0 mph22.5 kmh 29.70 in1005.8 mb 0.00 in0.0 mm 0.00 in/hr0.0 mm/hr 0.00 in0.0 mm
05:30 AM 84.4°F29.1°C 24.1°F-4.4°C 11% 10.0 mph SE16.1 kmh SE 16.0 mph25.7 kmh 29.70 in1005.8 mb 0.00 in0.0 mm 0.00 in/hr0.0 mm/hr 0.00 in0.0 mm
05:35 AM 84.3°F29.1°C 24.0°F-4.4°C 11% 14.0 mph SE22.5 kmh SE 17.0 mph27.4 kmh 29.71 in1006.1 mb 0.00 in0.0 mm 0.00 in/hr0.0 mm/hr 0.00 in0.0 mm
05:40 AM 84.3°F29.1°C 24.0°F-4.4°C 11% 5.0 mph SE8.0 kmh SE 15.0 mph24.1 kmh 29.71 in1006.1 mb 0.00 in0.0 mm 0.00 in/hr0.0 mm/hr 0.00 in0.0 mm
05:45 AM 84.2°F29.0°C 23.9°F-4.5°C 11% 8.0 mph ESE12.9 kmh ESE 17.0 mph27.4 kmh 29.71 in1006.1 mb 0.00 in0.0 mm 0.00 in/hr0.0 mm/hr 0.00 in0.0 mm
05:50 AM 84.3°F29.1°C 24.0°F-4.4°C 11% 12.0 mph ESE19.3 kmh ESE 16.0 mph25.7 kmh 29.71 in1006.1 mb 0.00 in0.0 mm 0.00 in/hr0.0 mm/hr 0.00 in0.0 mm
05:55 AM 84.4°F29.1°C 24.1°F-4.4°C 11% 5.0 mph E8.0 kmh E 15.0 mph24.1 kmh 29.71 in1006.1 mb 0.00 in0.0 mm 0.00 in/hr0.0 mm/hr 0.00 in0.0 mm
06:00 AM 84.3°F29.1°C 24.0°F-4.4°C 11% 7.0 mph ESE11.3 kmh ESE 14.0 mph22.5 kmh 29.71 in1006.1 mb 0.00 in0.0 mm 0.00 in/hr0.0 mm/hr 0.00 in0.0 mm
06:05 AM 84.2°F29.0°C 23.9°F-4.5°C 11% 7.0 mph SE11.3 kmh SE 14.0 mph22.5 kmh 29.72 in1006.4 mb 0.00 in0.0 mm 0.00 in/hr0.0 mm/hr 0.00 in0.0 mm
06:10 AM 84.3°F29.1°C 24.0°F-4.4°C 11% 11.0 mph ESE17.7 kmh ESE 16.0 mph25.7 kmh 29.72 in1006.4 mb 0.00 in0.0 mm 0.00 in/hr0.0 mm/hr 0.00 in0.0 mm
06:15 AM 84.6°F29.2°C 24.2°F-4.3°C 11% 10.0 mph ESE16.1 kmh ESE 13.0 mph20.9 kmh 29.72 in1006.4 mb 0.00 in0.0 mm 0.00 in/hr0.0 mm/hr 0.00 in0.0 mm
06:20 AM 84.7°F29.3°C 24.3°F-4.3°C 11% 9.0 mph SE14.5 kmh SE 16.0 mph25.7 kmh 29.73 in1006.8 mb 0.00 in0.0 mm 0.00 in/hr0.0 mm/hr 0.00 in0.0 mm
06:25 AM 84.8°F29.3°C 24.4°F-4.2°C 11% 17.0 mph SE27.4 kmh SE 17.0 mph27.4 kmh 29.73 in1006.8 mb 0.00 in0.0 mm 0.00 in/hr0.0 mm/hr 0.00 in0.0 mm
06:30 AM 85.0°F29.4°C 24.6°F-4.1°C 11% 5.0 mph E8.0 kmh E 16.0 mph25.7 kmh 29.73 in1006.8 mb 0.00 in0.0 mm 0.00 in/hr0.0 mm/hr 0.00 in0.0 mm
06:35 AM 85.2°F29.6°C 24.7°F-4.1°C 11% 11.0 mph SE17.7 kmh SE 15.0 mph24.1 kmh 29.73 in1006.8 mb 0.00 in0.0 mm 0.00 in/hr0.0 mm/hr 0.00 in0.0 mm
06:40 AM 85.5°F29.7°C 24.9°F-3.9°C 11% 11.0 mph ESE17.7 kmh ESE 21.0 mph33.8 kmh 29.73 in1006.8 mb 0.00 in0.0 mm 0.00 in/hr0.0 mm/hr 0.00 in0.0 mm
06:45 AM 85.8°F29.9°C 25.2°F-3.8°C 11% 8.0 mph ESE12.9 kmh ESE 21.0 mph33.8 kmh 29.73 in1006.8 mb 0.00 in0.0 mm 0.00 in/hr0.0 mm/hr 0.00 in0.0 mm
06:50 AM 86.0°F30.0°C 25.3°F-3.7°C 11% 8.0 mph ESE12.9 kmh ESE 18.0 mph29.0 kmh 29.73 in1006.8 mb 0.00 in0.0 mm 0.00 in/hr0.0 mm/hr 0.00 in0.0 mm
06:55 AM 86.2°F30.1°C 25.5°F-3.6°C 11% 8.0 mph E12.9 kmh E 15.0 mph24.1 kmh 29.73 in1006.8 mb 0.00 in0.0 mm 0.00 in/hr0.0 mm/hr 0.00 in0.0 mm
07:00 AM 86.3°F30.2°C 25.5°F-3.6°C 11% 17.0 mph SE27.4 kmh SE 19.0 mph30.6 kmh 29.73 in1006.8 mb 0.00 in0.0 mm 0.00 in/hr0.0 mm/hr 0.00 in0.0 mm
07:05 AM 86.6°F30.3°C 25.8°F-3.4°C 11% 7.0 mph SE11.3 kmh SE 17.0 mph27.4 kmh 29.74 in1007.1 mb 0.00 in0.0 mm 0.00 in/hr0.0 mm/hr 0.00 in0.0 mm
07:10 AM 86.8°F30.4°C 25.9°F-3.4°C 11% 7.0 mph SE11.3 kmh SE 18.0 mph29.0 kmh 29.74 in1007.1 mb 0.00 in0.0 mm 0.00 in/hr0.0 mm/hr 0.00 in0.0 mm
07:15 AM 87.0°F30.6°C 26.1°F-3.3°C 11% 9.0 mph SSE14.5 kmh SSE 19.0 mph30.6 kmh 29.74 in1007.1 mb 0.00 in0.0 mm 0.00 in/hr0.0 mm/hr 0.00 in0.0 mm
07:20 AM 87.2°F30.7°C 26.2°F-3.2°C 11% 7.0 mph SSE11.3 kmh SSE 19.0 mph30.6 kmh 29.74 in1007.1 mb 0.00 in0.0 mm 0.00 in/hr0.0 mm/hr 0.00 in0.0 mm
07:25 AM 87.4°F30.8°C 26.4°F-3.1°C 11% 10.0 mph ESE16.1 kmh ESE 21.0 mph33.8 kmh 29.74 in1007.1 mb 0.00 in0.0 mm 0.00 in/hr0.0 mm/hr 0.00 in0.0 mm
07:30 AM 87.6°F30.9°C 26.5°F-3.1°C 11% 11.0 mph SE17.7 kmh SE 17.0 mph27.4 kmh 29.74 in1007.1 mb 0.00 in0.0 mm 0.00 in/hr0.0 mm/hr 0.00 in0.0 mm
07:35 AM 87.8°F31.0°C 26.7°F-2.9°C 11% 12.0 mph SE19.3 kmh SE 19.0 mph30.6 kmh 29.74 in1007.1 mb 0.00 in0.0 mm 0.00 in/hr0.0 mm/hr 0.00 in0.0 mm
07:40 AM 88.1°F31.2°C 26.9°F-2.8°C 11% 13.0 mph E20.9 kmh E 16.0 mph25.7 kmh 29.74 in1007.1 mb 0.00 in0.0 mm 0.00 in/hr0.0 mm/hr 0.00 in0.0 mm
07:45 AM 88.3°F31.3°C 27.1°F-2.7°C 11% 9.0 mph ESE14.5 kmh ESE 18.0 mph29.0 kmh 29.75 in1007.5 mb 0.00 in0.0 mm 0.00 in/hr0.0 mm/hr 0.00 in0.0 mm
07:50 AM 88.4°F31.3°C 27.1°F-2.7°C 11% 15.0 mph SE24.1 kmh SE 19.0 mph30.6 kmh 29.75 in1007.5 mb 0.00 in0.0 mm 0.00 in/hr0.0 mm/hr 0.00 in0.0 mm
07:55 AM 88.8°F31.6°C 27.5°F-2.5°C 11% 10.0 mph SE16.1 kmh SE 18.0 mph29.0 kmh 29.75 in1007.5 mb 0.00 in0.0 mm 0.00 in/hr0.0 mm/hr 0.00 in0.0 mm
08:00 AM 89.2°F31.8°C 27.8°F-2.3°C 11% 12.0 mph SE19.3 kmh SE 17.0 mph27.4 kmh 29.75 in1007.5 mb 0.00 in0.0 mm 0.00 in/hr0.0 mm/hr 0.00 in0.0 mm
08:05 AM 89.4°F31.9°C 27.9°F-2.3°C 11% 18.0 mph E29.0 kmh E 18.0 mph29.0 kmh 29.75 in1007.5 mb 0.00 in0.0 mm 0.00 in/hr0.0 mm/hr 0.00 in0.0 mm
08:10 AM 89.5°F31.9°C 28.0°F-2.2°C 11% 11.0 mph ESE17.7 kmh ESE 18.0 mph29.0 kmh 29.75 in1007.5 mb 0.00 in0.0 mm 0.00 in/hr0.0 mm/hr 0.00 in0.0 mm
08:15 AM 90.0°F32.2°C 28.4°F-2.0°C 11% 8.0 mph ESE12.9 kmh ESE 17.0 mph27.4 kmh 29.75 in1007.5 mb 0.00 in0.0 mm 0.00 in/hr0.0 mm/hr 0.00 in0.0 mm
08:20 AM 90.0°F32.2°C 28.4°F-2.0°C 11% 10.0 mph SE16.1 kmh SE 17.0 mph27.4 kmh 29.76 in1007.8 mb 0.00 in0.0 mm 0.00 in/hr0.0 mm/hr 0.00 in0.0 mm
08:25 AM 90.5°F32.5°C 28.8°F-1.8°C 11% 12.0 mph SE19.3 kmh SE 19.0 mph30.6 kmh 29.76 in1007.8 mb 0.00 in0.0 mm 0.00 in/hr0.0 mm/hr 0.00 in0.0 mm
08:30 AM 90.9°F32.7°C 29.1°F-1.6°C 11% 7.0 mph E11.3 kmh E 17.0 mph27.4 kmh 29.76 in1007.8 mb 0.00 in0.0 mm 0.00 in/hr0.0 mm/hr 0.00 in0.0 mm
08:35 AM 90.7°F32.6°C 28.9°F-1.7°C 11% 14.0 mph SE22.5 kmh SE 19.0 mph30.6 kmh 29.76 in1007.8 mb 0.00 in0.0 mm 0.00 in/hr0.0 mm/hr 0.00 in0.0 mm
08:40 AM 90.8°F32.7°C 29.0°F-1.7°C 11% 11.0 mph ESE17.7 kmh ESE 17.0 mph27.4 kmh 29.76 in1007.8 mb 0.00 in0.0 mm 0.00 in/hr0.0 mm/hr 0.00 in0.0 mm
08:45 AM 90.9°F32.7°C 29.1°F-1.6°C 11% 5.0 mph ESE8.0 kmh ESE 17.0 mph27.4 kmh 29.76 in1007.8 mb 0.00 in0.0 mm 0.00 in/hr0.0 mm/hr 0.00 in0.0 mm
08:50 AM 91.3°F32.9°C 29.4°F-1.4°C 11% 16.0 mph SE25.7 kmh SE 17.0 mph27.4 kmh 29.76 in1007.8 mb 0.00 in0.0 mm 0.00 in/hr0.0 mm/hr 0.00 in0.0 mm
08:55 AM 91.3°F32.9°C 29.4°F-1.4°C 11% 7.0 mph SE11.3 kmh SE 18.0 mph29.0 kmh 29.76 in1007.8 mb 0.00 in0.0 mm 0.00 in/hr0.0 mm/hr 0.00 in0.0 mm
09:00 AM 91.9°F33.3°C 29.8°F-1.2°C 11% 7.0 mph SE11.3 kmh SE 18.0 mph29.0 kmh 29.77 in1008.1 mb 0.00 in0.0 mm 0.00 in/hr0.0 mm/hr 0.00 in0.0 mm
09:05 AM 92.3°F33.5°C 30.1°F-1.1°C 11% 5.0 mph SE8.0 kmh SE 13.0 mph20.9 kmh 29.76 in1007.8 mb 0.00 in0.0 mm 0.00 in/hr0.0 mm/hr 0.00 in0.0 mm
09:10 AM 92.5°F33.6°C 30.3°F-0.9°C 11% 9.0 mph SE14.5 kmh SE 15.0 mph24.1 kmh 29.77 in1008.1 mb 0.00 in0.0 mm 0.00 in/hr0.0 mm/hr 0.00 in0.0 mm
09:15 AM 93.1°F33.9°C 28.4°F-2.0°C 10% 6.0 mph SSE9.7 kmh SSE 11.0 mph17.7 kmh 29.76 in1007.8 mb 0.00 in0.0 mm 0.00 in/hr0.0 mm/hr 0.00 in0.0 mm
09:20 AM 93.3°F34.1°C 28.5°F-1.9°C 10% 10.0 mph E16.1 kmh E 14.0 mph22.5 kmh 29.76 in1007.8 mb 0.00 in0.0 mm 0.00 in/hr0.0 mm/hr 0.00 in0.0 mm
09:25 AM 93.2°F34.0°C 28.5°F-1.9°C 10% 5.0 mph S8.0 kmh S 12.0 mph19.3 kmh 29.76 in1007.8 mb 0.00 in0.0 mm 0.00 in/hr0.0 mm/hr 0.00 in0.0 mm
09:30 AM 93.4°F34.1°C 28.6°F-1.9°C 10% 11.0 mph ESE17.7 kmh ESE 15.0 mph24.1 kmh 29.76 in1007.8 mb 0.00 in0.0 mm 0.00 in/hr0.0 mm/hr 0.00 in0.0 mm
09:35 AM 94.1°F34.5°C 29.1°F-1.6°C 10% 5.0 mph SE8.0 kmh SE 14.0 mph22.5 kmh 29.76 in1007.8 mb 0.00 in0.0 mm 0.00 in/hr0.0 mm/hr 0.00 in0.0 mm
09:40 AM 94.3°F34.6°C 26.7°F-2.9°C 9% 12.0 mph SE19.3 kmh SE 16.0 mph25.7 kmh 29.76 in1007.8 mb 0.00 in0.0 mm 0.00 in/hr0.0 mm/hr 0.00 in0.0 mm
09:45 AM 94.1°F34.5°C 29.1°F-1.6°C 10% 7.0 mph SSE11.3 kmh SSE 16.0 mph25.7 kmh 29.76 in1007.8 mb 0.00 in0.0 mm 0.00 in/hr0.0 mm/hr 0.00 in0.0 mm
09:50 AM 94.2°F34.6°C 29.2°F-1.6°C 10% 8.0 mph SE12.9 kmh SE 13.0 mph20.9 kmh 29.76 in1007.8 mb 0.00 in0.0 mm 0.00 in/hr0.0 mm/hr 0.00 in0.0 mm
09:55 AM 94.2°F34.6°C 29.2°F-1.6°C 10% 8.0 mph SE12.9 kmh SE 14.0 mph22.5 kmh 29.76 in1007.8 mb 0.00 in0.0 mm 0.00 in/hr0.0 mm/hr 0.00 in0.0 mm
10:00 AM 94.7°F34.8°C 29.6°F-1.3°C 10% 8.0 mph ESE12.9 kmh ESE 16.0 mph25.7 kmh 29.76 in1007.8 mb 0.00 in0.0 mm 0.00 in/hr0.0 mm/hr 0.00 in0.0 mm
10:05 AM 95.1°F35.1°C 29.9°F-1.2°C 10% 6.0 mph SSE9.7 kmh SSE 17.0 mph27.4 kmh 29.76 in1007.8 mb 0.00 in0.0 mm 0.00 in/hr0.0 mm/hr 0.00 in0.0 mm
10:10 AM 94.7°F34.8°C 29.6°F-1.3°C 10% 9.0 mph SE14.5 kmh SE 12.0 mph19.3 kmh 29.76 in1007.8 mb 0.00 in0.0 mm 0.00 in/hr0.0 mm/hr 0.00 in0.0 mm
10:15 AM 94.8°F34.9°C 27.1°F-2.7°C 9% 8.0 mph SSE12.9 kmh SSE 11.0 mph17.7 kmh 29.76 in1007.8 mb 0.00 in0.0 mm 0.00 in/hr0.0 mm/hr 0.00 in0.0 mm
10:20 AM 95.6°F35.3°C 27.7°F-2.4°C 9% 11.0 mph E17.7 kmh E 12.0 mph19.3 kmh 29.75 in1007.5 mb 0.00 in0.0 mm 0.00 in/hr0.0 mm/hr 0.00 in0.0 mm
10:25 AM 95.7°F35.4°C 27.8°F-2.3°C 9% 4.0 mph S6.4 kmh S 13.0 mph20.9 kmh 29.75 in1007.5 mb 0.00 in0.0 mm 0.00 in/hr0.0 mm/hr 0.00 in0.0 mm
10:30 AM 95.9°F35.5°C 30.5°F-0.8°C 10% 10.0 mph ESE16.1 kmh ESE 14.0 mph22.5 kmh 29.75 in1007.5 mb 0.00 in0.0 mm 0.00 in/hr0.0 mm/hr 0.00 in0.0 mm
10:35 AM 96.4°F35.8°C 28.3°F-2.1°C 9% 7.0 mph SE11.3 kmh SE 10.0 mph16.1 kmh 29.75 in1007.5 mb 0.00 in0.0 mm 0.00 in/hr0.0 mm/hr 0.00 in0.0 mm
10:40 AM 96.3°F35.7°C 28.2°F-2.1°C 9% 6.0 mph S9.7 kmh S 17.0 mph27.4 kmh 29.75 in1007.5 mb 0.00 in0.0 mm 0.00 in/hr0.0 mm/hr 0.00 in0.0 mm
10:45 AM 96.3°F35.7°C 28.2°F-2.1°C 9% 12.0 mph SSE19.3 kmh SSE 16.0 mph25.7 kmh 29.75 in1007.5 mb 0.00 in0.0 mm 0.00 in/hr0.0 mm/hr 0.00 in0.0 mm
10:50 AM 96.6°F35.9°C 28.4°F-2.0°C 9% 8.0 mph SSE12.9 kmh SSE 15.0 mph24.1 kmh 29.75 in1007.5 mb 0.00 in0.0 mm 0.00 in/hr0.0 mm/hr 0.00 in0.0 mm
10:55 AM 95.9°F35.5°C 27.9°F-2.3°C 9% 5.0 mph SSE8.0 kmh SSE 13.0 mph20.9 kmh 29.75 in1007.5 mb 0.00 in0.0 mm 0.00 in/hr0.0 mm/hr 0.00 in0.0 mm
11:00 AM 96.0°F35.6°C 28.0°F-2.2°C 9% 4.0 mph SSE6.4 kmh SSE 12.0 mph19.3 kmh 29.75 in1007.5 mb 0.00 in0.0 mm 0.00 in/hr0.0 mm/hr 0.00 in0.0 mm
11:05 AM 96.3°F35.7°C 28.2°F-2.1°C 9% 5.0 mph SSE8.0 kmh SSE 21.0 mph33.8 kmh 29.75 in1007.5 mb 0.00 in0.0 mm 0.00 in/hr0.0 mm/hr 0.00 in0.0 mm
11:10 AM 97.3°F36.3°C 29.0°F-1.7°C 9% 8.0 mph S12.9 kmh S 15.0 mph24.1 kmh 29.75 in1007.5 mb 0.00 in0.0 mm 0.00 in/hr0.0 mm/hr 0.00 in0.0 mm
11:15 AM 96.9°F36.1°C 28.7°F-1.8°C 9% 7.0 mph S11.3 kmh S 19.0 mph30.6 kmh 29.75 in1007.5 mb 0.00 in0.0 mm 0.00 in/hr0.0 mm/hr 0.00 in0.0 mm
11:20 AM 97.0°F36.1°C 28.7°F-1.8°C 9% 8.0 mph S12.9 kmh S 13.0 mph20.9 kmh 29.74 in1007.1 mb 0.00 in0.0 mm 0.00 in/hr0.0 mm/hr 0.00 in0.0 mm
11:25 AM 97.1°F36.2°C 28.8°F-1.8°C 9% 8.0 mph SE12.9 kmh SE 15.0 mph24.1 kmh 29.75 in1007.5 mb 0.00 in0.0 mm 0.00 in/hr0.0 mm/hr 0.00 in0.0 mm
11:30 AM 97.1°F36.2°C 28.8°F-1.8°C 9% 13.0 mph SE20.9 kmh SE 13.0 mph20.9 kmh 29.74 in1007.1 mb 0.00 in0.0 mm 0.00 in/hr0.0 mm/hr 0.00 in0.0 mm
11:35 AM 97.6°F36.4°C 29.2°F-1.6°C 9% 7.0 mph SE11.3 kmh SE 15.0 mph24.1 kmh 29.74 in1007.1 mb 0.00 in0.0 mm 0.00 in/hr0.0 mm/hr 0.00 in0.0 mm
11:40 AM 97.8°F36.6°C 29.3°F-1.5°C 9% 9.0 mph SSE14.5 kmh SSE 17.0 mph27.4 kmh 29.74 in1007.1 mb 0.00 in0.0 mm 0.00 in/hr0.0 mm/hr 0.00 in0.0 mm
11:45 AM 98.1°F36.7°C 26.7°F-2.9°C 8% 8.0 mph SSE12.9 kmh SSE 17.0 mph27.4 kmh 29.74 in1007.1 mb 0.00 in0.0 mm 0.00 in/hr0.0 mm/hr 0.00 in0.0 mm
11:50 AM 97.3°F36.3°C 29.0°F-1.7°C 9% 5.0 mph S8.0 kmh S 8.0 mph12.9 kmh 29.74 in1007.1 mb 0.00 in0.0 mm 0.00 in/hr0.0 mm/hr 0.00 in0.0 mm
11:55 AM 98.0°F36.7°C 26.6°F-3.0°C 8% 10.0 mph S16.1 kmh S 14.0 mph22.5 kmh 29.73 in1006.8 mb 0.00 in0.0 mm 0.00 in/hr0.0 mm/hr 0.00 in0.0 mm
12:00 PM 98.4°F36.9°C 26.9°F-2.8°C 8% 2.0 mph S3.2 kmh S 12.0 mph19.3 kmh 29.73 in1006.8 mb 0.00 in0.0 mm 0.00 in/hr0.0 mm/hr 0.00 in0.0 mm
12:05 PM 98.7°F37.1°C 27.1°F-2.7°C 8% 6.0 mph SSE9.7 kmh SSE 9.0 mph14.5 kmh 29.73 in1006.8 mb 0.00 in0.0 mm 0.00 in/hr0.0 mm/hr 0.00 in0.0 mm
12:10 PM 98.7°F37.1°C 27.1°F-2.7°C 8% 9.0 mph SE14.5 kmh SE 16.0 mph25.7 kmh 29.72 in1006.4 mb 0.00 in0.0 mm 0.00 in/hr0.0 mm/hr 0.00 in0.0 mm
12:15 PM 99.1°F37.3°C 27.4°F-2.6°C 8% 9.0 mph SE14.5 kmh SE 14.0 mph22.5 kmh 29.72 in1006.4 mb 0.00 in0.0 mm 0.00 in/hr0.0 mm/hr 0.00 in0.0 mm
12:20 PM 99.1°F37.3°C 27.4°F-2.6°C 8% 3.0 mph SSE4.8 kmh SSE 14.0 mph22.5 kmh 29.72 in1006.4 mb 0.00 in0.0 mm 0.00 in/hr0.0 mm/hr 0.00 in0.0 mm
12:25 PM 100.3°F37.9°C 21.4°F-5.9°C 6% 4.0 mph SW6.4 kmh SW 13.0 mph20.9 kmh 29.72 in1006.4 mb 0.00 in0.0 mm 0.00 in/hr0.0 mm/hr 0.00 in0.0 mm
12:30 PM 100.6°F38.1°C 21.6°F-5.8°C 6% 7.0 mph SW11.3 kmh SW 13.0 mph20.9 kmh 29.72 in1006.4 mb 0.00 in0.0 mm 0.00 in/hr0.0 mm/hr 0.00 in0.0 mm
12:35 PM 99.8°F37.7°C 16.8°F-8.4°C 5% 6.0 mph WSW9.7 kmh WSW 13.0 mph20.9 kmh 29.72 in1006.4 mb 0.00 in0.0 mm 0.00 in/hr0.0 mm/hr 0.00 in0.0 mm
12:40 PM 99.9°F37.7°C 21.1°F-6.1°C 6% 1.0 mph SW1.6 kmh SW 12.0 mph19.3 kmh 29.71 in1006.1 mb 0.00 in0.0 mm 0.00 in/hr0.0 mm/hr 0.00 in0.0 mm
12:45 PM 100.9°F38.3°C 25.5°F-3.6°C 7% 7.0 mph SSE11.3 kmh SSE 11.0 mph17.7 kmh 29.71 in1006.1 mb 0.00 in0.0 mm 0.00 in/hr0.0 mm/hr 0.00 in0.0 mm
12:50 PM 100.9°F38.3°C 25.5°F-3.6°C 7% 5.0 mph S8.0 kmh S 9.0 mph14.5 kmh 29.71 in1006.1 mb 0.00 in0.0 mm 0.00 in/hr0.0 mm/hr 0.00 in0.0 mm
12:55 PM 100.7°F38.2°C 21.7°F-5.7°C 6% 3.0 mph S4.8 kmh S 13.0 mph20.9 kmh 29.71 in1006.1 mb 0.00 in0.0 mm 0.00 in/hr0.0 mm/hr 0.00 in0.0 mm
01:00 PM 101.0°F38.3°C 21.9°F-5.6°C 6% 6.0 mph SW9.7 kmh SW 9.0 mph14.5 kmh 29.71 in1006.1 mb 0.00 in0.0 mm 0.00 in/hr0.0 mm/hr 0.00 in0.0 mm
01:05 PM 101.3°F38.5°C 22.1°F-5.5°C 6% 6.0 mph SSW9.7 kmh SSW 17.0 mph27.4 kmh 29.71 in1006.1 mb 0.00 in0.0 mm 0.00 in/hr0.0 mm/hr 0.00 in0.0 mm
01:10 PM 101.5°F38.6°C 18.0°F-7.8°C 5% 9.0 mph S14.5 kmh S 18.0 mph29.0 kmh 29.71 in1006.1 mb 0.00 in0.0 mm 0.00 in/hr0.0 mm/hr 0.00 in0.0 mm
01:15 PM 100.3°F37.9°C 17.2°F-8.2°C 5% 7.0 mph S11.3 kmh S 14.0 mph22.5 kmh 29.71 in1006.1 mb 0.00 in0.0 mm 0.00 in/hr0.0 mm/hr 0.00 in0.0 mm
01:20 PM 101.1°F38.4°C 12.6°F-10.8°C 4% 1.0 mph SSW1.6 kmh SSW 12.0 mph19.3 kmh 29.71 in1006.1 mb 0.00 in0.0 mm 0.00 in/hr0.0 mm/hr 0.00 in0.0 mm
01:25 PM 100.4°F38.0°C 12.1°F-11.1°C 4% 4.0 mph S6.4 kmh S 10.0 mph16.1 kmh 29.70 in1005.8 mb 0.00 in0.0 mm 0.00 in/hr0.0 mm/hr 0.00 in0.0 mm
01:30 PM 100.5°F38.1°C 12.2°F-11.0°C 4% 6.0 mph S9.7 kmh S 12.0 mph19.3 kmh 29.71 in1006.1 mb 0.00 in0.0 mm 0.00 in/hr0.0 mm/hr 0.00 in0.0 mm
01:35 PM 101.0°F38.3°C 17.6°F-8.0°C 5% 5.0 mph SSW8.0 kmh SSW 12.0 mph19.3 kmh 29.71 in1006.1 mb 0.00 in0.0 mm 0.00 in/hr0.0 mm/hr 0.00 in0.0 mm
01:40 PM 99.3°F37.4°C 11.4°F-11.4°C 4% 2.0 mph SE3.2 kmh SE 9.0 mph14.5 kmh 29.70 in1005.8 mb 0.00 in0.0 mm 0.00 in/hr0.0 mm/hr 0.00 in0.0 mm
01:45 PM 99.0°F37.2°C 11.2°F-11.6°C 4% 1.0 mph S1.6 kmh S 10.0 mph16.1 kmh 29.70 in1005.8 mb 0.00 in0.0 mm 0.00 in/hr0.0 mm/hr 0.00 in0.0 mm
01:50 PM 100.9°F38.3°C 12.5°F-10.8°C 4% 6.0 mph SW9.7 kmh SW 9.0 mph14.5 kmh 29.70 in1005.8 mb 0.00 in0.0 mm 0.00 in/hr0.0 mm/hr 0.00 in0.0 mm
01:55 PM 101.3°F38.5°C 12.7°F-10.7°C 4% 6.0 mph WSW9.7 kmh WSW 14.0 mph22.5 kmh 29.70 in1005.8 mb 0.00 in0.0 mm 0.00 in/hr0.0 mm/hr 0.00 in0.0 mm
02:00 PM 101.4°F38.6°C 12.8°F-10.7°C 4% 5.0 mph SSW8.0 kmh SSW 11.0 mph17.7 kmh 29.69 in1005.4 mb 0.00 in0.0 mm 0.00 in/hr0.0 mm/hr 0.00 in0.0 mm
02:05 PM 102.1°F38.9°C 13.3°F-10.4°C 4% 10.0 mph WSW16.1 kmh WSW 16.0 mph25.7 kmh 29.69 in1005.4 mb 0.00 in0.0 mm 0.00 in/hr0.0 mm/hr 0.00 in0.0 mm
02:10 PM 101.7°F38.7°C 6.6°F-14.1°C 3% 7.0 mph SSW11.3 kmh SSW 14.0 mph22.5 kmh 29.69 in1005.4 mb 0.00 in0.0 mm 0.00 in/hr0.0 mm/hr 0.00 in0.0 mm
02:15 PM 100.3°F37.9°C 5.7°F-14.6°C 3% 3.0 mph SSW4.8 kmh SSW 9.0 mph14.5 kmh 29.69 in1005.4 mb 0.00 in0.0 mm 0.00 in/hr0.0 mm/hr 0.00 in0.0 mm
02:20 PM 101.3°F38.5°C 6.3°F-14.3°C 3% 9.0 mph SW14.5 kmh SW 17.0 mph27.4 kmh 29.69 in1005.4 mb 0.00 in0.0 mm 0.00 in/hr0.0 mm/hr 0.00 in0.0 mm
02:25 PM 101.4°F38.6°C 6.4°F-14.2°C 3% 6.0 mph SSW9.7 kmh SSW 14.0 mph22.5 kmh 29.69 in1005.4 mb 0.00 in0.0 mm 0.00 in/hr0.0 mm/hr 0.00 in0.0 mm
02:30 PM 101.3°F38.5°C 6.3°F-14.3°C 3% 2.0 mph SSW3.2 kmh SSW 11.0 mph17.7 kmh 29.68 in1005.1 mb 0.00 in0.0 mm 0.00 in/hr0.0 mm/hr 0.00 in0.0 mm
02:35 PM 101.0°F38.3°C 6.1°F-14.4°C 3% 4.0 mph S6.4 kmh S 10.0 mph16.1 kmh 29.68 in1005.1 mb 0.00 in0.0 mm 0.00 in/hr0.0 mm/hr 0.00 in0.0 mm
02:40 PM 101.0°F38.3°C 12.5°F-10.8°C 4% 5.0 mph SW8.0 kmh SW 13.0 mph20.9 kmh 29.68 in1005.1 mb 0.00 in0.0 mm 0.00 in/hr0.0 mm/hr 0.00 in0.0 mm
02:45 PM 100.9°F38.3°C 6.1°F-14.4°C 3% 4.0 mph WSW6.4 kmh WSW 17.0 mph27.4 kmh 29.68 in1005.1 mb 0.00 in0.0 mm 0.00 in/hr0.0 mm/hr 0.00 in0.0 mm
02:50 PM 101.0°F38.3°C 12.5°F-10.8°C 4% 5.0 mph WSW8.0 kmh WSW 16.0 mph25.7 kmh 29.68 in1005.1 mb 0.00 in0.0 mm 0.00 in/hr0.0 mm/hr 0.00 in0.0 mm
02:55 PM 100.9°F38.3°C 12.5°F-10.8°C 4% 4.0 mph SW6.4 kmh SW 12.0 mph19.3 kmh 29.67 in1004.7 mb 0.00 in0.0 mm 0.00 in/hr0.0 mm/hr 0.00 in0.0 mm
03:00 PM 101.1°F38.4°C 12.6°F-10.8°C 4% 6.0 mph SW9.7 kmh SW 11.0 mph17.7 kmh 29.67 in1004.7 mb 0.00 in0.0 mm 0.00 in/hr0.0 mm/hr 0.00 in0.0 mm
03:05 PM 101.4°F38.6°C 6.4°F-14.2°C 3% 6.0 mph W9.7 kmh W 17.0 mph27.4 kmh 29.67 in1004.7 mb 0.00 in0.0 mm 0.00 in/hr0.0 mm/hr 0.00 in0.0 mm
03:10 PM 101.5°F38.6°C 6.5°F-14.2°C 3% 7.0 mph SW11.3 kmh SW 11.0 mph17.7 kmh 29.66 in1004.4 mb 0.00 in0.0 mm 0.00 in/hr0.0 mm/hr 0.00 in0.0 mm
03:15 PM 101.1°F38.4°C 6.2°F-14.3°C 3% 3.0 mph SW4.8 kmh SW 13.0 mph20.9 kmh 29.66 in1004.4 mb 0.00 in0.0 mm 0.00 in/hr0.0 mm/hr 0.00 in0.0 mm
03:20 PM 101.0°F38.3°C 12.5°F-10.8°C 4% 10.0 mph WSW16.1 kmh WSW 12.0 mph19.3 kmh 29.66 in1004.4 mb 0.00 in0.0 mm 0.00 in/hr0.0 mm/hr 0.00 in0.0 mm
03:25 PM 101.4°F38.6°C 6.4°F-14.2°C 3% 6.0 mph SW9.7 kmh SW 13.0 mph20.9 kmh 29.66 in1004.4 mb 0.00 in0.0 mm 0.00 in/hr0.0 mm/hr 0.00 in0.0 mm
03:30 PM 101.2°F38.4°C 6.3°F-14.3°C 3% 7.0 mph WSW11.3 kmh WSW 12.0 mph19.3 kmh 29.66 in1004.4 mb 0.00 in0.0 mm 0.00 in/hr0.0 mm/hr 0.00 in0.0 mm
03:35 PM 100.8°F38.2°C 6.0°F-14.4°C 3% 7.0 mph WSW11.3 kmh WSW 10.0 mph16.1 kmh 29.65 in1004.1 mb 0.00 in0.0 mm 0.00 in/hr0.0 mm/hr 0.00 in0.0 mm
03:40 PM 101.3°F38.5°C 6.3°F-14.3°C 3% 10.0 mph SW16.1 kmh SW 13.0 mph20.9 kmh 29.65 in1004.1 mb 0.00 in0.0 mm 0.00 in/hr0.0 mm/hr 0.00 in0.0 mm
03:45 PM 101.3°F38.5°C 6.3°F-14.3°C 3% 9.0 mph W14.5 kmh W 12.0 mph19.3 kmh 29.65 in1004.1 mb 0.00 in0.0 mm 0.00 in/hr0.0 mm/hr 0.00 in0.0 mm
03:50 PM 100.9°F38.3°C 6.1°F-14.4°C 3% 4.0 mph W6.4 kmh W 13.0 mph20.9 kmh 29.65 in1004.1 mb 0.00 in0.0 mm 0.00 in/hr0.0 mm/hr 0.00 in0.0 mm
03:55 PM 100.8°F38.2°C 6.0°F-14.4°C 3% 5.0 mph WSW8.0 kmh WSW 15.0 mph24.1 kmh 29.65 in1004.1 mb 0.00 in0.0 mm 0.00 in/hr0.0 mm/hr 0.00 in0.0 mm
04:00 PM 99.5°F37.5°C 5.2°F-14.9°C 3% 2.0 mph E3.2 kmh E 6.0 mph9.7 kmh 29.64 in1003.7 mb 0.00 in0.0 mm 0.00 in/hr0.0 mm/hr 0.00 in0.0 mm
04:05 PM 100.7°F38.2°C 6.0°F-14.4°C 3% 1.0 mph WNW1.6 kmh WNW 7.0 mph11.3 kmh 29.64 in1003.7 mb 0.00 in0.0 mm 0.00 in/hr0.0 mm/hr 0.00 in0.0 mm
04:10 PM 101.0°F38.3°C 6.1°F-14.4°C 3% 6.0 mph NW9.7 kmh NW 14.0 mph22.5 kmh 29.64 in1003.7 mb 0.00 in0.0 mm 0.00 in/hr0.0 mm/hr 0.00 in0.0 mm
04:15 PM 100.9°F38.3°C 6.1°F-14.4°C 3% 4.0 mph WNW6.4 kmh WNW 12.0 mph19.3 kmh 29.64 in1003.7 mb 0.00 in0.0 mm 0.00 in/hr0.0 mm/hr 0.00 in0.0 mm
04:20 PM 101.3°F38.5°C 6.3°F-14.3°C 3% 4.0 mph WSW6.4 kmh WSW 8.0 mph12.9 kmh 29.64 in1003.7 mb 0.00 in0.0 mm 0.00 in/hr0.0 mm/hr 0.00 in0.0 mm
04:25 PM 101.7°F38.7°C 6.6°F-14.1°C 3% 11.0 mph SW17.7 kmh SW 16.0 mph25.7 kmh 29.64 in1003.7 mb 0.00 in0.0 mm 0.00 in/hr0.0 mm/hr 0.00 in0.0 mm
04:30 PM 101.4°F38.6°C 6.4°F-14.2°C 3% 10.0 mph SW16.1 kmh SW 17.0 mph27.4 kmh 29.64 in1003.7 mb 0.00 in0.0 mm 0.00 in/hr0.0 mm/hr 0.00 in0.0 mm
04:35 PM 101.4°F38.6°C 6.4°F-14.2°C 3% 8.0 mph WSW12.9 kmh WSW 16.0 mph25.7 kmh 29.64 in1003.7 mb 0.00 in0.0 mm 0.00 in/hr0.0 mm/hr 0.00 in0.0 mm
04:40 PM 100.7°F38.2°C 6.0°F-14.4°C 3% 6.0 mph WSW9.7 kmh WSW 16.0 mph25.7 kmh 29.64 in1003.7 mb 0.00 in0.0 mm 0.00 in/hr0.0 mm/hr 0.00 in0.0 mm
04:45 PM 100.6°F38.1°C 5.9°F-14.5°C 3% 12.0 mph SW19.3 kmh SW 15.0 mph24.1 kmh 29.64 in1003.7 mb 0.00 in0.0 mm 0.00 in/hr0.0 mm/hr 0.00 in0.0 mm
04:50 PM 100.3°F37.9°C 5.7°F-14.6°C 3% 6.0 mph SW9.7 kmh SW 14.0 mph22.5 kmh 29.64 in1003.7 mb 0.00 in0.0 mm 0.00 in/hr0.0 mm/hr 0.00 in0.0 mm
04:55 PM 100.6°F38.1°C 5.9°F-14.5°C 3% 12.0 mph WSW19.3 kmh WSW 14.0 mph22.5 kmh 29.64 in1003.7 mb 0.00 in0.0 mm 0.00 in/hr0.0 mm/hr 0.00 in0.0 mm
05:00 PM 100.5°F38.1°C 5.8°F-14.6°C 3% 7.0 mph NW11.3 kmh NW 11.0 mph17.7 kmh 29.64 in1003.7 mb 0.00 in0.0 mm 0.00 in/hr0.0 mm/hr 0.00 in0.0 mm
05:05 PM 100.1°F37.8°C 5.6°F-14.7°C 3% 7.0 mph SW11.3 kmh SW 8.0 mph12.9 kmh 29.64 in1003.7 mb 0.00 in0.0 mm 0.00 in/hr0.0 mm/hr 0.00 in0.0 mm
05:10 PM 100.2°F37.9°C 12.0°F-11.1°C 4% 10.0 mph WSW16.1 kmh WSW 13.0 mph20.9 kmh 29.64 in1003.7 mb 0.00 in0.0 mm 0.00 in/hr0.0 mm/hr 0.00 in0.0 mm
05:15 PM 100.2°F37.9°C 12.0°F-11.1°C 4% 5.0 mph WSW8.0 kmh WSW 20.0 mph32.2 kmh 29.64 in1003.7 mb 0.00 in0.0 mm 0.00 in/hr0.0 mm/hr 0.00 in0.0 mm
05:20 PM 100.1°F37.8°C 11.9°F-11.2°C 4% 11.0 mph WSW17.7 kmh WSW 15.0 mph24.1 kmh 29.64 in1003.7 mb 0.00 in0.0 mm 0.00 in/hr0.0 mm/hr 0.00 in0.0 mm
05:25 PM 99.6°F37.6°C 5.2°F-14.9°C 3% 3.0 mph SW4.8 kmh SW 15.0 mph24.1 kmh 29.64 in1003.7 mb 0.00 in0.0 mm 0.00 in/hr0.0 mm/hr 0.00 in0.0 mm
05:30 PM 99.6°F37.6°C 11.6°F-11.3°C 4% 9.0 mph WSW14.5 kmh WSW 13.0 mph20.9 kmh 29.64 in1003.7 mb 0.00 in0.0 mm 0.00 in/hr0.0 mm/hr 0.00 in0.0 mm
05:35 PM 99.5°F37.5°C 11.5°F-11.4°C 4% 4.0 mph SW6.4 kmh SW 13.0 mph20.9 kmh 29.64 in1003.7 mb 0.00 in0.0 mm 0.00 in/hr0.0 mm/hr 0.00 in0.0 mm
05:40 PM 99.0°F37.2°C 11.2°F-11.6°C 4% 8.0 mph WSW12.9 kmh WSW 12.0 mph19.3 kmh 29.64 in1003.7 mb 0.00 in0.0 mm 0.00 in/hr0.0 mm/hr 0.00 in0.0 mm
05:45 PM 98.7°F37.1°C 11.0°F-11.7°C 4% 7.0 mph WSW11.3 kmh WSW 13.0 mph20.9 kmh 29.64 in1003.7 mb 0.00 in0.0 mm 0.00 in/hr0.0 mm/hr 0.00 in0.0 mm
05:50 PM 98.6°F37.0°C 10.9°F-11.7°C 4% 6.0 mph WNW9.7 kmh WNW 10.0 mph16.1 kmh 29.64 in1003.7 mb 0.00 in0.0 mm 0.00 in/hr0.0 mm/hr 0.00 in0.0 mm
05:55 PM 98.6°F37.0°C 4.6°F-15.2°C 3% 4.0 mph WNW6.4 kmh WNW 10.0 mph16.1 kmh 29.64 in1003.7 mb 0.00 in0.0 mm 0.00 in/hr0.0 mm/hr 0.00 in0.0 mm
06:00 PM 98.3°F36.8°C 10.7°F-11.8°C 4% 1.0 mph WSW1.6 kmh WSW 11.0 mph17.7 kmh 29.64 in1003.7 mb 0.00 in0.0 mm 0.00 in/hr0.0 mm/hr 0.00 in0.0 mm
06:05 PM 98.3°F36.8°C 4.4°F-15.3°C 3% 4.0 mph WNW6.4 kmh WNW 14.0 mph22.5 kmh 29.64 in1003.7 mb 0.00 in0.0 mm 0.00 in/hr0.0 mm/hr 0.00 in0.0 mm
06:10 PM 98.2°F36.8°C 4.3°F-15.4°C 3% 5.0 mph WNW8.0 kmh WNW 13.0 mph20.9 kmh 29.64 in1003.7 mb 0.00 in0.0 mm 0.00 in/hr0.0 mm/hr 0.00 in0.0 mm
06:15 PM 98.0°F36.7°C 4.2°F-15.4°C 3% 9.0 mph W14.5 kmh W 15.0 mph24.1 kmh 29.63 in1003.4 mb 0.00 in0.0 mm 0.00 in/hr0.0 mm/hr 0.00 in0.0 mm
06:20 PM 97.6°F36.4°C 3.9°F-15.6°C 3% 7.0 mph W11.3 kmh W 14.0 mph22.5 kmh 29.64 in1003.7 mb 0.00 in0.0 mm 0.00 in/hr0.0 mm/hr 0.00 in0.0 mm
06:25 PM 97.3°F36.3°C 3.7°F-15.7°C 3% 8.0 mph WSW12.9 kmh WSW 12.0 mph19.3 kmh 29.64 in1003.7 mb 0.00 in0.0 mm 0.00 in/hr0.0 mm/hr 0.00 in0.0 mm
06:30 PM 96.9°F36.1°C 3.5°F-15.8°C 3% 7.0 mph W11.3 kmh W 10.0 mph16.1 kmh 29.64 in1003.7 mb 0.00 in0.0 mm 0.00 in/hr0.0 mm/hr 0.00 in0.0 mm
06:35 PM 96.6°F35.9°C 3.3°F-15.9°C 3% 3.0 mph NW4.8 kmh NW 8.0 mph12.9 kmh 29.64 in1003.7 mb 0.00 in0.0 mm 0.00 in/hr0.0 mm/hr 0.00 in0.0 mm
06:40 PM 96.2°F35.7°C 3.0°F-16.1°C 3% 3.0 mph W4.8 kmh W 7.0 mph11.3 kmh 29.64 in1003.7 mb 0.00 in0.0 mm 0.00 in/hr0.0 mm/hr 0.00 in0.0 mm
06:45 PM 95.8°F35.4°C 2.7°F-16.3°C 3% 3.0 mph WSW4.8 kmh WSW 8.0 mph12.9 kmh 29.64 in1003.7 mb 0.00 in0.0 mm 0.00 in/hr0.0 mm/hr 0.00 in0.0 mm
06:50 PM 95.5°F35.3°C 2.5°F-16.4°C 3% 6.0 mph W9.7 kmh W 8.0 mph12.9 kmh 29.64 in1003.7 mb 0.00 in0.0 mm 0.00 in/hr0.0 mm/hr 0.00 in0.0 mm
06:55 PM 95.1°F35.1°C 2.3°F-16.5°C 3% 6.0 mph WSW9.7 kmh WSW 10.0 mph16.1 kmh 29.64 in1003.7 mb 0.00 in0.0 mm 0.00 in/hr0.0 mm/hr 0.00 in0.0 mm
07:00 PM 94.9°F34.9°C 2.1°F-16.6°C 3% 6.0 mph W9.7 kmh W 8.0 mph12.9 kmh 29.64 in1003.7 mb 0.00 in0.0 mm 0.00 in/hr0.0 mm/hr 0.00 in0.0 mm
07:05 PM 94.4°F34.7°C 1.8°F-16.8°C 3% 6.0 mph W9.7 kmh W 7.0 mph11.3 kmh 29.65 in1004.1 mb 0.00 in0.0 mm 0.00 in/hr0.0 mm/hr 0.00 in0.0 mm
07:10 PM 94.1°F34.5°C 1.6°F-16.9°C 3% 7.0 mph NW11.3 kmh NW 11.0 mph17.7 kmh 29.65 in1004.1 mb 0.00 in0.0 mm 0.00 in/hr0.0 mm/hr 0.00 in0.0 mm
07:15 PM 93.8°F34.3°C 1.4°F-17.0°C 3% 4.0 mph WNW6.4 kmh WNW 11.0 mph17.7 kmh 29.65 in1004.1 mb 0.00 in0.0 mm 0.00 in/hr0.0 mm/hr 0.00 in0.0 mm
07:20 PM 93.4°F34.1°C 1.2°F-17.1°C 3% 4.0 mph NW6.4 kmh NW 8.0 mph12.9 kmh 29.65 in1004.1 mb 0.00 in0.0 mm 0.00 in/hr0.0 mm/hr 0.00 in0.0 mm
07:25 PM 92.9°F33.8°C 0.8°F-17.3°C 3% 3.0 mph WNW4.8 kmh WNW 7.0 mph11.3 kmh 29.65 in1004.1 mb 0.00 in0.0 mm 0.00 in/hr0.0 mm/hr 0.00 in0.0 mm
07:30 PM 92.0°F33.3°C 0.2°F-17.7°C 3% 2.0 mph NW3.2 kmh NW 4.0 mph6.4 kmh 29.65 in1004.1 mb 0.00 in0.0 mm 0.00 in/hr0.0 mm/hr 0.00 in0.0 mm
07:35 PM 91.6°F33.1°C 0.0°F-17.8°C 3% 2.0 mph NW3.2 kmh NW 6.0 mph9.7 kmh 29.65 in1004.1 mb 0.00 in0.0 mm 0.00 in/hr0.0 mm/hr 0.00 in0.0 mm
07:40 PM 91.3°F32.9°C -5537.2°C 3% 2.0 mph NW3.2 kmh NW 6.0 mph9.7 kmh 29.65 in1004.1 mb 0.00 in0.0 mm 0.00 in/hr0.0 mm/hr 0.00 in0.0 mm
07:45 PM 90.6°F32.6°C 5.5°F-14.7°C 4% 1.0 mph NW1.6 kmh NW 4.0 mph6.4 kmh 29.66 in1004.4 mb 0.00 in0.0 mm 0.00 in/hr0.0 mm/hr 0.00 in0.0 mm
07:50 PM 89.0°F31.7°C 4.4°F-15.3°C 4% 1.0 mph NW1.6 kmh NW 3.0 mph4.8 kmh 29.66 in1004.4 mb 0.00 in0.0 mm 0.00 in/hr0.0 mm/hr 0.00 in0.0 mm
07:55 PM 87.6°F30.9°C 8.3°F-13.2°C 5% 1.0 mph NW1.6 kmh NW 2.0 mph3.2 kmh 29.66 in1004.4 mb 0.00 in0.0 mm 0.00 in/hr0.0 mm/hr 0.00 in0.0 mm
08:00 PM 86.5°F30.3°C 7.5°F-13.6°C 5% 1.0 mph NW1.6 kmh NW 2.0 mph3.2 kmh 29.66 in1004.4 mb 0.00 in0.0 mm 0.00 in/hr0.0 mm/hr 0.00 in0.0 mm
08:05 PM 86.0°F30.0°C 7.2°F-13.8°C 5% 1.0 mph NW1.6 kmh NW 2.0 mph3.2 kmh 29.66 in1004.4 mb 0.00 in0.0 mm 0.00 in/hr0.0 mm/hr 0.00 in0.0 mm
08:10 PM 85.6°F29.8°C 11.0°F-11.7°C 6% 1.0 mph NW1.6 kmh NW 2.0 mph3.2 kmh 29.66 in1004.4 mb 0.00 in0.0 mm 0.00 in/hr0.0 mm/hr 0.00 in0.0 mm
08:15 PM 85.0°F29.4°C 10.5°F-11.9°C 6% 1.0 mph NW1.6 kmh NW 2.0 mph3.2 kmh 29.66 in1004.4 mb 0.00 in0.0 mm 0.00 in/hr0.0 mm/hr 0.00 in0.0 mm
08:20 PM 84.3°F29.1°C 10.0°F-12.2°C 6% 2.0 mph NW3.2 kmh NW 2.0 mph3.2 kmh 29.66 in1004.4 mb 0.00 in0.0 mm 0.00 in/hr0.0 mm/hr 0.00 in0.0 mm
08:25 PM 84.0°F28.9°C 9.8°F-12.3°C 6% 1.0 mph NW1.6 kmh NW 2.0 mph3.2 kmh 29.67 in1004.7 mb 0.00 in0.0 mm 0.00 in/hr0.0 mm/hr 0.00 in0.0 mm
08:30 PM 83.4°F28.6°C 9.4°F-12.6°C 6% 3.0 mph NW4.8 kmh NW 3.0 mph4.8 kmh 29.67 in1004.7 mb 0.00 in0.0 mm 0.00 in/hr0.0 mm/hr 0.00 in0.0 mm
08:35 PM 82.9°F28.3°C 9.0°F-12.8°C 6% 1.0 mph NW1.6 kmh NW 3.0 mph4.8 kmh 29.67 in1004.7 mb 0.00 in0.0 mm 0.00 in/hr0.0 mm/hr 0.00 in0.0 mm
08:40 PM 82.8°F28.2°C 9.0°F-12.8°C 6% 1.0 mph NW1.6 kmh NW 2.0 mph3.2 kmh 29.67 in1004.7 mb 0.00 in0.0 mm 0.00 in/hr0.0 mm/hr 0.00 in0.0 mm
08:45 PM 82.6°F28.1°C 8.8°F-12.9°C 6% 1.0 mph NW1.6 kmh NW 2.0 mph3.2 kmh 29.67 in1004.7 mb 0.00 in0.0 mm 0.00 in/hr0.0 mm/hr 0.00 in0.0 mm
08:50 PM 82.7°F28.2°C 8.9°F-12.8°C 6% 1.0 mph NW1.6 kmh NW 2.0 mph3.2 kmh 29.67 in1004.7 mb 0.00 in0.0 mm 0.00 in/hr0.0 mm/hr 0.00 in0.0 mm
08:55 PM 82.8°F28.2°C 9.0°F-12.8°C 6% 1.0 mph NW1.6 kmh NW 2.0 mph3.2 kmh 29.68 in1005.1 mb 0.00 in0.0 mm 0.00 in/hr0.0 mm/hr 0.00 in0.0 mm
09:00 PM 81.9°F27.7°C 11.8°F-11.2°C 7% Calm Calm 1.0 mph1.6 kmh 29.68 in1005.1 mb 0.00 in0.0 mm 0.00 in/hr0.0 mm/hr 0.00 in0.0 mm
09:05 PM 81.1°F27.3°C 11.2°F-11.6°C 7% 2.0 mph NW3.2 kmh NW 2.0 mph3.2 kmh 29.68 in1005.1 mb 0.00 in0.0 mm 0.00 in/hr0.0 mm/hr 0.00 in0.0 mm
09:10 PM 80.6°F27.0°C 10.8°F-11.8°C 7% 2.0 mph NW3.2 kmh NW 3.0 mph4.8 kmh 29.69 in1005.4 mb 0.00 in0.0 mm 0.00 in/hr0.0 mm/hr 0.00 in0.0 mm
09:15 PM 80.5°F26.9°C 10.7°F-11.8°C 7% 1.0 mph NW1.6 kmh NW 4.0 mph6.4 kmh 29.69 in1005.4 mb 0.00 in0.0 mm 0.00 in/hr0.0 mm/hr 0.00 in0.0 mm
09:20 PM 80.5°F26.9°C 10.7°F-11.8°C 7% 1.0 mph NW1.6 kmh NW 2.0 mph3.2 kmh 29.69 in1005.4 mb 0.00 in0.0 mm 0.00 in/hr0.0 mm/hr 0.00 in0.0 mm
09:25 PM 80.3°F26.8°C 10.6°F-11.9°C 7% 2.0 mph NW3.2 kmh NW 3.0 mph4.8 kmh 29.69 in1005.4 mb 0.00 in0.0 mm 0.00 in/hr0.0 mm/hr 0.00 in0.0 mm
09:30 PM 80.5°F26.9°C 10.7°F-11.8°C 7% 2.0 mph NW3.2 kmh NW 3.0 mph4.8 kmh 29.69 in1005.4 mb 0.00 in0.0 mm 0.00 in/hr0.0 mm/hr 0.00 in0.0 mm
09:35 PM 80.7°F27.1°C 10.9°F-11.7°C 7% 2.0 mph NW3.2 kmh NW 3.0 mph4.8 kmh 29.69 in1005.4 mb 0.00 in0.0 mm 0.00 in/hr0.0 mm/hr 0.00 in0.0 mm
09:40 PM 80.9°F27.2°C 11.0°F-11.7°C 7% 2.0 mph NW3.2 kmh NW 3.0 mph4.8 kmh 29.69 in1005.4 mb 0.00 in0.0 mm 0.00 in/hr0.0 mm/hr 0.00 in0.0 mm
09:45 PM 81.4°F27.4°C 11.4°F-11.4°C 7% 2.0 mph NW3.2 kmh NW 3.0 mph4.8 kmh 29.69 in1005.4 mb 0.00 in0.0 mm 0.00 in/hr0.0 mm/hr 0.00 in0.0 mm
09:50 PM 81.4°F27.4°C 11.4°F-11.4°C 7% 1.0 mph NW1.6 kmh NW 3.0 mph4.8 kmh 29.70 in1005.8 mb 0.00 in0.0 mm 0.00 in/hr0.0 mm/hr 0.00 in0.0 mm
09:55 PM 81.0°F27.2°C 11.1°F-11.6°C 7% 1.0 mph NW1.6 kmh NW 4.0 mph6.4 kmh 29.70 in1005.8 mb 0.00 in0.0 mm 0.00 in/hr0.0 mm/hr 0.00 in0.0 mm
10:00 PM 81.6°F27.6°C 11.5°F-11.4°C 7% 1.0 mph NW1.6 kmh NW 2.0 mph3.2 kmh 29.70 in1005.8 mb 0.00 in0.0 mm 0.00 in/hr0.0 mm/hr 0.00 in0.0 mm
10:05 PM 81.6°F27.6°C 11.5°F-11.4°C 7% 1.0 mph NW1.6 kmh NW 3.0 mph4.8 kmh 29.70 in1005.8 mb 0.00 in0.0 mm 0.00 in/hr0.0 mm/hr 0.00 in0.0 mm
10:10 PM 81.7°F27.6°C 8.2°F-13.2°C 6% 2.0 mph NW3.2 kmh NW 4.0 mph6.4 kmh 29.70 in1005.8 mb 0.00 in0.0 mm 0.00 in/hr0.0 mm/hr 0.00 in0.0 mm
10:15 PM 82.6°F28.1°C 8.8°F-12.9°C 6% 1.0 mph NNW1.6 kmh NNW 4.0 mph6.4 kmh 29.70 in1005.8 mb 0.00 in0.0 mm 0.00 in/hr0.0 mm/hr 0.00 in0.0 mm
10:20 PM 82.3°F27.9°C 8.6°F-13.0°C 6% 1.0 mph NNW1.6 kmh NNW 4.0 mph6.4 kmh 29.70 in1005.8 mb 0.00 in0.0 mm 0.00 in/hr0.0 mm/hr 0.00 in0.0 mm
10:25 PM 82.4°F28.0°C 8.7°F-12.9°C 6% 1.0 mph NNW1.6 kmh NNW 3.0 mph4.8 kmh 29.70 in1005.8 mb 0.00 in0.0 mm 0.00 in/hr0.0 mm/hr 0.00 in0.0 mm
10:30 PM 82.3°F27.9°C 12.0°F-11.1°C 7% 1.0 mph NNW1.6 kmh NNW 2.0 mph3.2 kmh 29.70 in1005.8 mb 0.00 in0.0 mm 0.00 in/hr0.0 mm/hr 0.00 in0.0 mm
10:35 PM 81.7°F27.6°C 11.6°F-11.3°C 7% 1.0 mph NNW1.6 kmh NNW 2.0 mph3.2 kmh 29.70 in1005.8 mb 0.00 in0.0 mm 0.00 in/hr0.0 mm/hr 0.00 in0.0 mm
10:40 PM 81.5°F27.5°C 11.5°F-11.4°C 7% 1.0 mph NNW1.6 kmh NNW 3.0 mph4.8 kmh 29.70 in1005.8 mb 0.00 in0.0 mm 0.00 in/hr0.0 mm/hr 0.00 in0.0 mm
10:45 PM 81.1°F27.3°C 11.2°F-11.6°C 7% 1.0 mph NNW1.6 kmh NNW 3.0 mph4.8 kmh 29.70 in1005.8 mb 0.00 in0.0 mm 0.00 in/hr0.0 mm/hr 0.00 in0.0 mm
10:50 PM 80.9°F27.2°C 11.0°F-11.7°C 7% 1.0 mph NNW1.6 kmh NNW 2.0 mph3.2 kmh 29.70 in1005.8 mb 0.00 in0.0 mm 0.00 in/hr0.0 mm/hr 0.00 in0.0 mm
10:55 PM 80.1°F26.7°C 13.4°F-10.3°C 8% 1.0 mph NNW1.6 kmh NNW 2.0 mph3.2 kmh 29.70 in1005.8 mb 0.00 in0.0 mm 0.00 in/hr0.0 mm/hr 0.00 in0.0 mm
11:00 PM 79.7°F26.5°C 13.2°F-10.4°C 8% 1.0 mph NNW1.6 kmh NNW 2.0 mph3.2 kmh 29.70 in1005.8 mb 0.00 in0.0 mm 0.00 in/hr0.0 mm/hr 0.00 in0.0 mm
11:05 PM 79.7°F26.5°C 13.2°F-10.4°C 8% 1.0 mph NNW1.6 kmh NNW 2.0 mph3.2 kmh 29.70 in1005.8 mb 0.00 in0.0 mm 0.00 in/hr0.0 mm/hr 0.00 in0.0 mm
11:10 PM 78.9°F26.1°C 12.6°F-10.8°C 8% 2.0 mph NNW3.2 kmh NNW 2.0 mph3.2 kmh 29.70 in1005.8 mb 0.00 in0.0 mm 0.00 in/hr0.0 mm/hr 0.00 in0.0 mm
11:15 PM 78.8°F26.0°C 12.5°F-10.8°C 8% 2.0 mph NNW3.2 kmh NNW 3.0 mph4.8 kmh 29.70 in1005.8 mb 0.00 in0.0 mm 0.00 in/hr0.0 mm/hr 0.00 in0.0 mm
11:20 PM 78.7°F25.9°C 12.4°F-10.9°C 8% 1.0 mph NNW1.6 kmh NNW 3.0 mph4.8 kmh 29.70 in1005.8 mb 0.00 in0.0 mm 0.00 in/hr0.0 mm/hr 0.00 in0.0 mm
11:25 PM 78.9°F26.1°C 12.6°F-10.8°C 8% Calm Calm 2.0 mph3.2 kmh 29.71 in1006.1 mb 0.00 in0.0 mm 0.00 in/hr0.0 mm/hr 0.00 in0.0 mm
11:30 PM 79.3°F26.3°C 12.9°F-10.6°C 8% 1.0 mph NNW1.6 kmh NNW 3.0 mph4.8 kmh 29.71 in1006.1 mb 0.00 in0.0 mm 0.00 in/hr0.0 mm/hr 0.00 in0.0 mm
11:35 PM 78.8°F26.0°C 12.5°F-10.8°C 8% 1.0 mph NW1.6 kmh NW 3.0 mph4.8 kmh 29.71 in1006.1 mb 0.00 in0.0 mm 0.00 in/hr0.0 mm/hr 0.00 in0.0 mm
11:40 PM 78.5°F25.8°C 14.9°F-9.5°C 9% 1.0 mph NW1.6 kmh NW 3.0 mph4.8 kmh 29.71 in1006.1 mb 0.00 in0.0 mm 0.00 in/hr0.0 mm/hr 0.00 in0.0 mm
11:45 PM 76.8°F24.9°C 16.1°F-8.8°C 10% Calm Calm -- 29.71 in1006.1 mb 0.00 in0.0 mm 0.00 in/hr0.0 mm/hr 0.00 in0.0 mm
11:50 PM 75.2°F24.0°C 17.0°F-8.3°C 11% Calm Calm -- 29.71 in1006.1 mb 0.00 in0.0 mm 0.00 in/hr0.0 mm/hr 0.00 in0.0 mm
11:55 PM 74.7°F23.7°C 16.7°F-8.5°C 11% 1.0 mph NW1.6 kmh NW 1.0 mph1.6 kmh 29.71 in1006.1 mb 0.00 in0.0 mm 0.00 in/hr0.0 mm/hr 0.00 in0.0 mm